CheckWX is a tool to help pilots better visualize weather data.  It is not intended as a substitute for an official pre-flight weather briefing.

16:58:35 UTC

UWGG TAF
Nizhny Novgorod International Airport
Nizhny Novgorod, Russian Federation
TAF UWGG 181352Z 1815/1915 30003MPS 9999 BKN030 TX22/1815Z TN15/1901Z TEMPO 1815/1821 32006G13MPS 4000 -TSRA BKN015CB

Jun-18@
15:00 UTC

Jun-18 @ 15:00 UTC

Jun-19@
15:00 UTC

Jun-19 @ 15:00 UTC

TAF UWGG 181352Z 1815/1915 30003MPS 9999 BKN030 TX22/1815Z TN15/1901Z
Wind
  • 300° at 6 KTS
Cloud Levels
  • Broken at 3,000' AGL

Jun-18@
15:00 UTC

Jun-18 @ 15:00 UTC

Jun-18@
21:00 UTC

Jun-18 @ 21:00 UTC

TEMPO 1815/1821 32006G13MPS 4000 -TSRA BKN015CB

Temporary

Temporary Changes expected for less than half the time period

Wind
  • 320° at 12 KTS
  • {Gusting to 25 KTS
Conditions
Light Thunderstorm, Light Rain
Cloud Levels
  • Broken at 1,500' AGL